createdAt,value
2023-01-20T00:03:22.756Z,19.75
2023-01-20T00:08:25.511Z,29.38
2023-01-20T00:13:28.230Z,27.40
2023-01-20T00:18:33.350Z,29.13
2023-01-20T00:23:36.202Z,22.65
2023-01-20T00:28:39.032Z,30.25
2023-01-20T00:33:43.724Z,30.85
2023-01-20T00:38:46.851Z,26.83
2023-01-20T00:43:49.959Z,20.83
2023-01-20T00:48:54.286Z,21.23
2023-01-20T00:53:57.631Z,22.50
2023-01-20T00:59:00.392Z,27.13
2023-01-20T01:04:04.541Z,24.80
2023-01-20T01:09:07.410Z,26.52
2023-01-20T01:14:10.572Z,25.70
2023-01-20T01:19:14.701Z,25.70
2023-01-20T01:24:17.473Z,27.42
2023-01-20T01:29:20.229Z,28.15
2023-01-20T01:34:24.646Z,29.05
2023-01-20T01:39:28.581Z,28.30
2023-01-20T01:44:32.862Z,26.40
2023-01-20T01:49:37.041Z,24.83
2023-01-20T01:54:45.488Z,25.80
2023-01-20T01:59:48.286Z,25.05
2023-01-20T02:04:52.452Z,24.45
2023-01-20T02:09:55.337Z,24.15
2023-01-20T02:15:00.685Z,22.30
2023-01-20T02:20:25.960Z,20.70
2023-01-20T02:25:45.660Z,24.77
2023-01-20T02:31:20.039Z,26.67
2023-01-20T02:36:30.366Z,24.80
2023-01-20T02:41:39.892Z,24.95
2023-01-20T02:46:52.686Z,26.48
2023-01-20T02:52:02.900Z,26.52
2023-01-20T02:57:09.572Z,27.20
2023-01-20T03:02:16.295Z,28.50
2023-01-20T03:07:24.386Z,28.55
2023-01-20T03:12:32.269Z,27.50
2023-01-20T03:17:35.845Z,30.45
2023-01-20T03:22:40.021Z,28.00
2023-01-20T03:27:43.442Z,30.45
2023-01-20T03:32:49.285Z,31.40
2023-01-20T03:37:53.424Z,32.45
2023-01-20T03:43:02.832Z,32.60
2023-01-20T03:48:14.035Z,31.02
2023-01-20T03:53:28.884Z,31.10
2023-01-20T03:58:36.251Z,30.05
2023-01-20T04:03:41.212Z,30.10
2023-01-20T04:08:49.104Z,31.25
2023-01-20T04:13:52.228Z,31.60
2023-01-20T04:18:55.383Z,29.83
2023-01-20T04:24:04.566Z,28.95
2023-01-20T04:29:12.669Z,25.90
2023-01-20T04:34:16.396Z,25.33
2023-01-20T04:39:20.533Z,27.40
2023-01-20T04:44:23.362Z,28.48
2023-01-20T04:49:26.111Z,28.05
2023-01-20T04:54:30.342Z,26.85
2023-01-20T04:59:33.139Z,27.45
2023-01-20T05:04:37.888Z,27.25
2023-01-20T05:09:42.043Z,27.60
2023-01-20T05:14:44.823Z,29.13
2023-01-20T05:19:47.668Z,26.20
2023-01-20T05:24:51.793Z,30.77
2023-01-20T05:29:54.689Z,29.67
2023-01-20T05:34:57.453Z,28.95
2023-01-20T05:40:01.634Z,28.70
2023-01-20T05:45:05.020Z,27.30
2023-01-20T05:50:11.356Z,22.35
2023-01-20T05:55:15.955Z,23.30
2023-01-20T06:00:20.031Z,19.92
2023-01-20T06:05:23.181Z,24.00
2023-01-20T06:10:28.097Z,24.05
2023-01-20T06:15:30.863Z,24.33
2023-01-20T06:20:33.602Z,20.90
2023-01-20T06:25:37.817Z,22.92
2023-01-20T06:30:43.091Z,22.35
2023-01-20T06:35:45.905Z,21.85
2023-01-20T06:40:50.025Z,24.27
2023-01-20T06:45:52.780Z,26.77
2023-01-20T06:50:55.673Z,22.15
2023-01-20T06:56:01.287Z,28.02
2023-01-20T07:01:09.767Z,26.23
2023-01-20T07:06:18.167Z,28.42
2023-01-20T07:11:22.406Z,26.95
2023-01-20T07:16:25.534Z,26.27
2023-01-20T07:21:29.027Z,24.42
2023-01-20T07:26:33.525Z,23.50
2023-01-20T07:31:36.501Z,26.60
2023-01-20T07:36:39.247Z,22.23
2023-01-20T07:41:45.549Z,27.23
2023-01-20T07:46:48.658Z,25.92
2023-01-20T07:51:51.413Z,25.83
2023-01-20T07:56:55.625Z,27.33
2023-01-20T08:01:58.373Z,26.20
2023-01-20T08:07:01.137Z,24.45
2023-01-20T08:12:05.905Z,26.08
2023-01-20T08:17:08.853Z,27.00
2023-01-20T08:22:11.653Z,25.23
2023-01-20T08:27:15.858Z,27.58
2023-01-20T08:32:18.669Z,25.20
2023-01-20T08:37:21.629Z,28.23
2023-01-20T08:42:25.730Z,26.00
2023-01-20T08:47:28.613Z,26.90
2023-01-20T08:52:31.470Z,25.92
2023-01-20T08:57:35.593Z,26.25
2023-01-20T09:02:38.987Z,25.60
2023-01-20T09:07:41.781Z,24.02
2023-01-20T09:12:46.459Z,24.42
2023-01-20T09:17:49.375Z,23.60
2023-01-20T09:22:52.193Z,24.88
2023-01-20T09:27:56.410Z,27.25
2023-01-20T09:33:00.135Z,26.02
2023-01-20T09:38:20.555Z,24.67
2023-01-20T09:43:51.792Z,24.20
2023-01-20T09:49:21.002Z,24.98
2023-01-20T09:54:27.414Z,24.42
2023-01-20T09:59:41.161Z,22.70
2023-01-20T10:04:49.693Z,22.65
2023-01-20T10:09:59.500Z,21.65
2023-01-20T10:15:08.971Z,20.77
2023-01-20T10:20:22.613Z,20.42
2023-01-20T10:25:30.209Z,17.63
2023-01-20T10:30:37.790Z,20.15
2023-01-20T10:35:44.306Z,14.25
2023-01-20T10:40:53.512Z,13.70
2023-01-20T10:46:12.575Z,15.95
2023-01-20T10:51:25.767Z,13.50
2023-01-20T10:56:37.319Z,15.40
2023-01-20T11:01:42.575Z,15.55
2023-01-20T11:06:46.679Z,12.77
2023-01-20T11:11:49.512Z,10.90
2023-01-20T11:17:00.942Z,11.88
2023-01-20T11:22:11.963Z,11.77
2023-01-20T11:27:17.882Z,12.10
2023-01-20T11:32:42.900Z,11.93
2023-01-20T11:37:45.774Z,9.18
2023-01-20T11:42:49.898Z,10.05
2023-01-20T11:48:03.834Z,9.10
2023-01-20T11:53:17.744Z,10.50
2023-01-20T11:58:22.464Z,12.52
2023-01-20T12:03:52.087Z,9.20
2023-01-20T12:09:00.613Z,9.75
2023-01-20T12:14:28.554Z,12.07
2023-01-20T12:19:38.619Z,10.20
2023-01-20T12:25:05.323Z,11.18
2023-01-20T12:30:23.205Z,11.40
2023-01-20T12:35:35.078Z,9.73
2023-01-20T12:40:47.629Z,9.67
2023-01-20T12:51:17.240Z,9.00
2023-01-20T12:56:30.107Z,9.35
2023-01-20T13:01:43.907Z,9.18
2023-01-20T13:07:04.229Z,9.55
2023-01-20T13:12:25.632Z,11.23
2023-01-20T13:17:36.050Z,10.98
2023-01-20T13:22:40.281Z,10.25
2023-01-20T13:27:45.021Z,8.50
2023-01-20T13:32:49.068Z,8.50
2023-01-20T13:37:56.351Z,9.35
2023-01-20T13:42:59.345Z,12.13
2023-01-20T13:48:18.003Z,11.82
2023-01-20T13:53:29.772Z,11.35
2023-01-20T13:58:44.211Z,11.93
2023-01-20T14:04:02.571Z,12.27
2023-01-20T14:09:19.793Z,11.32
2023-01-20T14:14:24.985Z,11.13
2023-01-20T14:19:32.427Z,10.88
2023-01-20T14:24:38.440Z,12.10
2023-01-20T14:29:41.209Z,10.65
2023-01-20T14:34:44.659Z,10.43
2023-01-20T14:39:51.552Z,10.52
2023-01-20T14:44:56.587Z,11.13
2023-01-20T14:49:59.469Z,9.93
2023-01-20T14:55:03.672Z,10.38
2023-01-20T15:00:20.446Z,12.35
2023-01-20T15:05:28.383Z,13.93
2023-01-20T15:10:32.665Z,14.73
2023-01-20T15:21:23.055Z,13.18
2023-01-20T15:26:29.585Z,13.88
2023-01-20T15:31:32.392Z,14.65
2023-01-20T15:36:36.913Z,18.42
2023-01-20T15:41:41.316Z,19.30
2023-01-20T15:46:44.080Z,16.02
2023-01-20T15:51:47.356Z,16.02
2023-01-20T15:56:51.482Z,17.33
2023-01-20T16:01:54.273Z,17.52
2023-01-20T16:06:57.005Z,17.75
2023-01-20T16:12:01.082Z,19.73
2023-01-20T16:17:03.877Z,21.10
2023-01-20T16:22:08.602Z,19.65
2023-01-20T16:27:19.260Z,19.67
2023-01-20T16:32:24.053Z,18.77
2023-01-20T16:37:26.851Z,19.48
2023-01-20T16:42:31.011Z,33.25
2023-01-20T16:47:33.866Z,20.90
2023-01-20T16:52:36.636Z,20.00
2023-01-20T16:57:40.810Z,19.95
2023-01-20T17:02:45.565Z,19.15
2023-01-20T17:07:48.314Z,21.25
2023-01-20T17:12:54.598Z,20.38
2023-01-20T17:17:59.825Z,20.00
2023-01-20T17:23:03.192Z,19.00
2023-01-20T17:28:07.394Z,19.95
2023-01-20T17:33:10.142Z,19.77
2023-01-20T17:38:12.969Z,21.83
2023-01-20T17:43:17.200Z,21.75
2023-01-20T17:48:20.025Z,21.95
2023-01-20T17:53:22.852Z,22.45
2023-01-20T17:58:27.019Z,24.58
2023-01-20T18:03:29.764Z,29.08
2023-01-20T18:08:32.620Z,26.73
2023-01-20T18:13:37.064Z,26.48
2023-01-20T18:18:40.196Z,25.42
2023-01-20T18:23:43.778Z,26.45
2023-01-20T18:28:47.970Z,24.38
2023-01-20T18:33:52.234Z,23.40
2023-01-20T18:38:57.078Z,26.08
2023-01-20T18:44:01.284Z,25.42
2023-01-20T18:49:05.164Z,24.90
2023-01-20T18:54:10.367Z,24.15
2023-01-20T18:59:15.553Z,23.45
2023-01-20T19:04:18.317Z,24.30
2023-01-20T19:09:21.166Z,25.58
2023-01-20T19:14:25.355Z,25.60
2023-01-20T19:19:28.044Z,25.98
2023-01-20T19:24:30.821Z,23.95
2023-01-20T19:29:35.019Z,26.25
2023-01-20T19:34:39.189Z,26.65
2023-01-20T19:39:41.979Z,26.45
2023-01-20T19:44:46.164Z,26.95
2023-01-20T19:49:48.943Z,35.40
2023-01-20T19:54:52.283Z,27.15
2023-01-20T19:59:56.430Z,27.00
2023-01-20T20:04:59.169Z,24.15
2023-01-20T20:10:02.031Z,27.42
2023-01-20T20:15:07.126Z,25.90
2023-01-20T20:20:11.303Z,24.63
2023-01-20T20:25:14.154Z,25.20
2023-01-20T20:30:19.206Z,25.85
2023-01-20T20:35:22.020Z,26.80
2023-01-20T20:40:25.221Z,25.88
2023-01-20T20:45:29.423Z,26.67
2023-01-20T20:50:32.510Z,27.80
2023-01-20T20:55:35.371Z,28.70
2023-01-20T21:00:39.612Z,27.20
2023-01-20T21:05:46.263Z,25.80
2023-01-20T21:10:49.106Z,26.73
2023-01-20T21:16:01.528Z,24.63
2023-01-20T21:21:06.392Z,24.80
2023-01-20T21:26:12.721Z,24.35
2023-01-20T21:31:19.124Z,24.23
2023-01-20T21:36:23.181Z,23.15
2023-01-20T21:41:26.082Z,25.98
2023-01-20T21:46:31.590Z,24.17
2023-01-20T21:51:51.909Z,27.58
2023-01-20T21:56:54.680Z,27.45
2023-01-20T22:01:58.905Z,31.27
2023-01-20T22:07:01.737Z,27.48
2023-01-20T22:12:05.033Z,26.90
2023-01-20T22:17:11.219Z,28.17
2023-01-20T22:22:15.298Z,26.65
2023-01-20T22:27:18.152Z,26.38
2023-01-20T22:32:22.260Z,26.10
2023-01-20T22:37:25.674Z,25.38
2023-01-20T22:42:28.542Z,23.75
2023-01-20T22:47:32.674Z,24.20
2023-01-20T22:52:35.455Z,26.20
2023-01-20T22:57:38.230Z,23.88
2023-01-20T23:02:42.381Z,23.90
2023-01-20T23:07:45.144Z,24.92
2023-01-20T23:12:47.909Z,22.73
2023-01-20T23:17:52.070Z,24.70
2023-01-20T23:22:54.942Z,23.42
2023-01-20T23:27:57.762Z,24.52
2023-01-20T23:33:01.939Z,24.42
2023-01-20T23:38:04.762Z,23.58
2023-01-20T23:43:07.525Z,21.73
2023-01-20T23:48:11.671Z,22.17
2023-01-20T23:53:14.500Z,21.35
2023-01-20T23:58:17.243Z,21.38
